sensor_id;sensor_type;location;lat;lon;timestamp;pressure;altitude;pressure_sealevel;temperature;humidity
23953;BME280;12163;49.316;6.092;2023-04-25T00:00:13;98865.09;;;8.64;81.58
23953;BME280;12163;49.316;6.092;2023-04-25T00:02:40;98852.75;;;8.63;81.43
23953;BME280;12163;49.316;6.092;2023-04-25T00:05:08;98873.19;;;8.64;81.47
23953;BME280;12163;49.316;6.092;2023-04-25T00:07:35;98864.59;;;8.62;81.75
23953;BME280;12163;49.316;6.092;2023-04-25T00:10:02;98857.34;;;8.63;81.59
23953;BME280;12163;49.316;6.092;2023-04-25T00:12:29;98861.31;;;8.65;81.68
23953;BME280;12163;49.316;6.092;2023-04-25T00:14:56;98859.72;;;8.64;81.75
23953;BME280;12163;49.316;6.092;2023-04-25T00:17:26;98855.25;;;8.60;82.10
23953;BME280;12163;49.316;6.092;2023-04-25T00:19:53;98859.28;;;8.57;82.17
23953;BME280;12163;49.316;6.092;2023-04-25T00:22:20;98856.09;;;8.55;82.26
23953;BME280;12163;49.316;6.092;2023-04-25T00:24:47;98862.56;;;8.54;82.78
23953;BME280;12163;49.316;6.092;2023-04-25T00:27:13;98858.84;;;8.50;82.73
23953;BME280;12163;49.316;6.092;2023-04-25T00:29:40;98862.91;;;8.48;82.73
23953;BME280;12163;49.316;6.092;2023-04-25T00:32:06;98867.00;;;8.45;82.35
23953;BME280;12163;49.316;6.092;2023-04-25T00:34:33;98869.22;;;8.38;82.61
23953;BME280;12163;49.316;6.092;2023-04-25T00:37:00;98870.88;;;8.34;82.48
23953;BME280;12163;49.316;6.092;2023-04-25T00:39:28;98874.13;;;8.32;82.48
23953;BME280;12163;49.316;6.092;2023-04-25T00:41:55;98872.03;;;8.29;82.58
23953;BME280;12163;49.316;6.092;2023-04-25T00:44:22;98857.50;;;8.30;82.91
23953;BME280;12163;49.316;6.092;2023-04-25T00:46:48;98850.53;;;8.29;82.95
23953;BME280;12163;49.316;6.092;2023-04-25T00:49:18;98862.06;;;8.29;82.51
23953;BME280;12163;49.316;6.092;2023-04-25T00:51:44;98859.09;;;8.31;82.41
23953;BME280;12163;49.316;6.092;2023-04-25T00:54:14;98861.28;;;8.29;82.51
23953;BME280;12163;49.316;6.092;2023-04-25T00:56:41;98852.13;;;8.30;82.40
23953;BME280;12163;49.316;6.092;2023-04-25T00:59:09;98852.91;;;8.30;82.49
23953;BME280;12163;49.316;6.092;2023-04-25T01:01:36;98858.53;;;8.33;82.10
23953;BME280;12163;49.316;6.092;2023-04-25T01:04:04;98857.19;;;8.31;82.45
23953;BME280;12163;49.316;6.092;2023-04-25T01:06:31;98843.72;;;8.36;82.30
23953;BME280;12163;49.316;6.092;2023-04-25T01:08:58;98854.16;;;8.37;82.00
23953;BME280;12163;49.316;6.092;2023-04-25T01:11:25;98849.59;;;8.38;82.23
23953;BME280;12163;49.316;6.092;2023-04-25T01:13:52;98842.31;;;8.38;82.41
23953;BME280;12163;49.316;6.092;2023-04-25T01:16:19;98847.66;;;8.43;82.30
23953;BME280;12163;49.316;6.092;2023-04-25T01:18:45;98849.25;;;8.44;82.17
23953;BME280;12163;49.316;6.092;2023-04-25T01:21:13;98850.84;;;8.45;82.17
23953;BME280;12163;49.316;6.092;2023-04-25T01:23:40;98847.78;;;8.52;82.14
23953;BME280;12163;49.316;6.092;2023-04-25T01:26:09;98848.03;;;8.55;82.11
23953;BME280;12163;49.316;6.092;2023-04-25T01:28:37;98847.97;;;8.60;81.85
23953;BME280;12163;49.316;6.092;2023-04-25T01:31:03;98849.56;;;8.61;81.58
23953;BME280;12163;49.316;6.092;2023-04-25T01:33:32;98849.63;;;8.56;81.44
23953;BME280;12163;49.316;6.092;2023-04-25T01:35:59;98851.81;;;8.54;81.95
23953;BME280;12163;49.316;6.092;2023-04-25T01:38:25;98844.84;;;8.53;82.07
23953;BME280;12163;49.316;6.092;2023-04-25T01:40:53;98841.63;;;8.51;82.16
23953;BME280;12163;49.316;6.092;2023-04-25T01:43:20;98838.13;;;8.51;82.45
23953;BME280;12163;49.316;6.092;2023-04-25T01:45:47;98843.31;;;8.47;82.32
23953;BME280;12163;49.316;6.092;2023-04-25T01:48:14;98832.03;;;8.45;82.53
23953;BME280;12163;49.316;6.092;2023-04-25T01:50:42;98830.94;;;8.46;82.90
23953;BME280;12163;49.316;6.092;2023-04-25T01:53:09;98826.34;;;8.47;82.63
23953;BME280;12163;49.316;6.092;2023-04-25T01:55:37;98815.59;;;8.47;82.73
23953;BME280;12163;49.316;6.092;2023-04-25T01:58:04;98809.94;;;8.48;82.97
23953;BME280;12163;49.316;6.092;2023-04-25T02:00:36;98808.84;;;8.49;83.20
23953;BME280;12163;49.316;6.092;2023-04-25T02:03:05;98801.31;;;8.51;82.96
23953;BME280;12163;49.316;6.092;2023-04-25T02:05:37;98792.94;;;8.53;83.06
23953;BME280;12163;49.316;6.092;2023-04-25T02:08:08;98789.69;;;8.56;82.85
23953;BME280;12163;49.316;6.092;2023-04-25T02:10:35;98784.50;;;8.59;82.84
23953;BME280;12163;49.316;6.092;2023-04-25T02:13:02;98783.66;;;8.64;82.82
23953;BME280;12163;49.316;6.092;2023-04-25T02:15:30;98782.28;;;8.66;83.07
23953;BME280;12163;49.316;6.092;2023-04-25T02:17:57;98788.16;;;8.68;83.02
23953;BME280;12163;49.316;6.092;2023-04-25T02:20:24;98800.00;;;8.67;82.88
23953;BME280;12163;49.316;6.092;2023-04-25T02:22:51;98800.00;;;8.67;83.13
23953;BME280;12163;49.316;6.092;2023-04-25T02:25:19;98794.63;;;8.67;82.98
23953;BME280;12163;49.316;6.092;2023-04-25T02:27:47;98798.41;;;8.66;83.30
23953;BME280;12163;49.316;6.092;2023-04-25T02:30:14;98810.22;;;8.65;83.35
23953;BME280;12163;49.316;6.092;2023-04-25T02:32:41;98810.53;;;8.64;83.29
23953;BME280;12163;49.316;6.092;2023-04-25T02:35:08;98813.50;;;8.62;83.29
23953;BME280;12163;49.316;6.092;2023-04-25T02:37:36;98828.63;;;8.58;83.68
23953;BME280;12163;49.316;6.092;2023-04-25T02:40:03;98826.75;;;8.59;83.97
23953;BME280;12163;49.316;6.092;2023-04-25T02:42:30;98823.25;;;8.58;84.12
23953;BME280;12163;49.316;6.092;2023-04-25T02:44:57;98821.06;;;8.60;83.67
23953;BME280;12163;49.316;6.092;2023-04-25T02:47:24;98822.66;;;8.61;84.10
23953;BME280;12163;49.316;6.092;2023-04-25T02:49:50;98818.88;;;8.62;83.72
23953;BME280;12163;49.316;6.092;2023-04-25T02:52:17;98828.03;;;8.61;83.83
23953;BME280;12163;49.316;6.092;2023-04-25T02:54:44;98817.50;;;8.65;83.98
23953;BME280;12163;49.316;6.092;2023-04-25T02:57:10;98825.84;;;8.63;84.01
23953;BME280;12163;49.316;6.092;2023-04-25T02:59:37;98832.41;;;8.57;83.77
23953;BME280;12163;49.316;6.092;2023-04-25T03:02:03;98828.19;;;8.51;83.57
23953;BME280;12163;49.316;6.092;2023-04-25T03:04:30;98825.56;;;8.46;83.94
23953;BME280;12163;49.316;6.092;2023-04-25T03:06:57;98814.81;;;8.46;84.06
23953;BME280;12163;49.316;6.092;2023-04-25T03:09:23;98815.91;;;8.45;83.80
23953;BME280;12163;49.316;6.092;2023-04-25T03:11:50;98815.94;;;8.40;83.69
23953;BME280;12163;49.316;6.092;2023-04-25T03:14:16;98818.72;;;8.35;84.27
23953;BME280;12163;49.316;6.092;2023-04-25T03:16:43;98805.84;;;8.32;84.16
23953;BME280;12163;49.316;6.092;2023-04-25T03:19:09;98810.72;;;8.31;84.34
23953;BME280;12163;49.316;6.092;2023-04-25T03:21:36;98810.22;;;8.29;84.22
23953;BME280;12163;49.316;6.092;2023-04-25T03:24:05;98809.13;;;8.30;84.22
23953;BME280;12163;49.316;6.092;2023-04-25T03:26:32;98809.13;;;8.30;84.45
23953;BME280;12163;49.316;6.092;2023-04-25T03:28:58;98808.03;;;8.31;84.51
23953;BME280;12163;49.316;6.092;2023-04-25T03:31:25;98817.97;;;8.30;84.62
23953;BME280;12163;49.316;6.092;2023-04-25T03:33:52;98814.94;;;8.36;84.61
23953;BME280;12163;49.316;6.092;2023-04-25T03:36:18;98812.75;;;8.38;84.39
23953;BME280;12163;49.316;6.092;2023-04-25T03:38:45;98811.38;;;8.41;84.41
23953;BME280;12163;49.316;6.092;2023-04-25T03:41:12;98804.66;;;8.43;84.04
23953;BME280;12163;49.316;6.092;2023-04-25T03:43:39;98809.44;;;8.46;84.45
23953;BME280;12163;49.316;6.092;2023-04-25T03:46:05;98820.97;;;8.47;84.61
23953;BME280;12163;49.316;6.092;2023-04-25T03:48:32;98805.66;;;8.47;84.23
23953;BME280;12163;49.316;6.092;2023-04-25T03:50:59;98809.44;;;8.46;84.39
23953;BME280;12163;49.316;6.092;2023-04-25T03:53:25;98807.84;;;8.45;84.21
23953;BME280;12163;49.316;6.092;2023-04-25T03:55:52;98807.34;;;8.43;84.50
23953;BME280;12163;49.316;6.092;2023-04-25T03:58:18;98815.44;;;8.38;84.22
23953;BME280;12163;49.316;6.092;2023-04-25T04:00:45;98816.03;;;8.35;84.37
23953;BME280;12163;49.316;6.092;2023-04-25T04:03:12;98814.72;;;8.33;84.66
23953;BME280;12163;49.316;6.092;2023-04-25T04:05:39;98818.78;;;8.31;84.72
23953;BME280;12163;49.316;6.092;2023-04-25T04:08:06;98820.44;;;8.27;84.55
23953;BME280;12163;49.316;6.092;2023-04-25T04:10:33;98816.75;;;8.23;84.53
23953;BME280;12163;49.316;6.092;2023-04-25T04:13:00;98819.94;;;8.25;84.79
23953;BME280;12163;49.316;6.092;2023-04-25T04:15:26;98820.44;;;8.27;84.77
23953;BME280;12163;49.316;6.092;2023-04-25T04:17:53;98822.03;;;8.28;84.64
23953;BME280;12163;49.316;6.092;2023-04-25T04:20:21;98820.66;;;8.30;84.55
23953;BME280;12163;49.316;6.092;2023-04-25T04:22:47;98823.06;;;8.32;84.57
23953;BME280;12163;49.316;6.092;2023-04-25T04:25:14;98821.47;;;8.31;84.64
23953;BME280;12163;49.316;6.092;2023-04-25T04:27:41;98827.63;;;8.31;84.65
23953;BME280;12163;49.316;6.092;2023-04-25T04:30:08;98830.03;;;8.32;84.45
23953;BME280;12163;49.316;6.092;2023-04-25T04:32:34;98839.63;;;8.38;84.75
23953;BME280;12163;49.316;6.092;2023-04-25T04:35:04;98831.53;;;8.43;84.62
23953;BME280;12163;49.316;6.092;2023-04-25T04:37:32;98835.75;;;8.49;84.70
23953;BME280;12163;49.316;6.092;2023-04-25T04:39:59;98836.75;;;8.53;84.54
23953;BME280;12163;49.316;6.092;2023-04-25T04:42:32;98840.97;;;8.59;83.89
23953;BME280;12163;49.316;6.092;2023-04-25T04:44:58;98840.97;;;8.59;83.93
23953;BME280;12163;49.316;6.092;2023-04-25T04:47:28;98843.16;;;8.57;83.95
23953;BME280;12163;49.316;6.092;2023-04-25T04:49:57;98844.56;;;8.55;83.79
23953;BME280;12163;49.316;6.092;2023-04-25T04:52:24;98847.75;;;8.57;83.68
23953;BME280;12163;49.316;6.092;2023-04-25T04:54:50;98850.94;;;8.59;83.98
23953;BME280;12163;49.316;6.092;2023-04-25T04:57:17;98849.09;;;8.78;84.51
23953;BME280;12163;49.316;6.092;2023-04-25T04:59:44;98843.09;;;9.18;84.74
23953;BME280;12163;49.316;6.092;2023-04-25T05:02:10;98844.25;;;9.62;83.48
23953;BME280;12163;49.316;6.092;2023-04-25T05:04:37;98847.28;;;9.88;82.23
23953;BME280;12163;49.316;6.092;2023-04-25T05:07:04;98854.91;;;9.99;80.81
23953;BME280;12163;49.316;6.092;2023-04-25T05:09:30;98859.91;;;10.05;79.97
23953;BME280;12163;49.316;6.092;2023-04-25T05:11:57;98852.03;;;10.09;79.74
23953;BME280;12163;49.316;6.092;2023-04-25T05:14:23;98865.84;;;10.21;78.51
23953;BME280;12163;49.316;6.092;2023-04-25T05:16:50;98858.44;;;10.13;78.28
23953;BME280;12163;49.316;6.092;2023-04-25T05:19:17;98866.91;;;10.20;78.91
23953;BME280;12163;49.316;6.092;2023-04-25T05:21:43;98869.13;;;10.45;79.43
23953;BME280;12163;49.316;6.092;2023-04-25T05:24:10;98865.69;;;10.80;78.43
23953;BME280;12163;49.316;6.092;2023-04-25T05:26:37;98859.59;;;11.10;77.00
23953;BME280;12163;49.316;6.092;2023-04-25T05:29:04;98869.56;;;11.23;75.51
23953;BME280;12163;49.316;6.092;2023-04-25T05:31:32;98863.41;;;11.09;74.99
23953;BME280;12163;49.316;6.092;2023-04-25T05:33:58;98876.66;;;10.97;75.34
23953;BME280;12163;49.316;6.092;2023-04-25T05:39:09;98872.53;;;11.35;74.48
23953;BME280;12163;49.316;6.092;2023-04-25T05:41:36;98880.72;;;11.43;73.63
23953;BME280;12163;49.316;6.092;2023-04-25T05:44:03;98879.47;;;11.27;71.84
23953;BME280;12163;49.316;6.092;2023-04-25T05:46:30;98882.25;;;10.87;72.40
23953;BME280;12163;49.316;6.092;2023-04-25T05:48:56;98881.53;;;10.46;73.31
23953;BME280;12163;49.316;6.092;2023-04-25T05:51:23;98889.59;;;10.19;74.26
23953;BME280;12163;49.316;6.092;2023-04-25T05:53:49;98886.31;;;9.90;74.71
23953;BME280;12163;49.316;6.092;2023-04-25T05:56:17;98899.84;;;9.72;75.86
23953;BME280;12163;49.316;6.092;2023-04-25T05:58:43;98898.50;;;9.56;76.34
23953;BME280;12163;49.316;6.092;2023-04-25T06:01:10;98905.66;;;9.47;77.55
23953;BME280;12163;49.316;6.092;2023-04-25T06:03:37;98902.72;;;9.43;77.85
23953;BME280;12163;49.316;6.092;2023-04-25T06:06:05;98908.03;;;9.48;78.00
23953;BME280;12163;49.316;6.092;2023-04-25T06:08:32;98909.03;;;9.52;78.29
23953;BME280;12163;49.316;6.092;2023-04-25T06:10:58;98906.34;;;9.52;78.35
23953;BME280;12163;49.316;6.092;2023-04-25T06:13:25;98912.25;;;9.54;78.54
23953;BME280;12163;49.316;6.092;2023-04-25T06:15:51;98919.75;;;9.57;78.80
23953;BME280;12163;49.316;6.092;2023-04-25T06:18:18;98923.47;;;9.61;78.72
23953;BME280;12163;49.316;6.092;2023-04-25T06:20:45;98926.06;;;9.66;78.75
23953;BME280;12163;49.316;6.092;2023-04-25T06:23:12;98924.47;;;9.65;78.54
23953;BME280;12163;49.316;6.092;2023-04-25T06:25:39;98926.66;;;9.63;78.36
23953;BME280;12163;49.316;6.092;2023-04-25T06:28:05;98929.84;;;9.65;78.56
23953;BME280;12163;49.316;6.092;2023-04-25T06:30:32;98928.16;;;9.69;78.46
23953;BME280;12163;49.316;6.092;2023-04-25T06:32:58;98931.88;;;9.73;78.26
23953;BME280;12163;49.316;6.092;2023-04-25T06:35:25;98937.19;;;9.78;78.94
23953;BME280;12163;49.316;6.092;2023-04-25T06:37:52;98942.50;;;9.83;78.19
23953;BME280;12163;49.316;6.092;2023-04-25T06:40:18;98947.88;;;9.83;77.47
23953;BME280;12163;49.316;6.092;2023-04-25T06:42:45;98936.72;;;9.90;77.53
23953;BME280;12163;49.316;6.092;2023-04-25T06:45:12;98940.59;;;10.02;77.53
23953;BME280;12163;49.316;6.092;2023-04-25T06:47:38;98940.91;;;10.14;77.48
23953;BME280;12163;49.316;6.092;2023-04-25T06:50:05;98943.44;;;10.24;76.45
23953;BME280;12163;49.316;6.092;2023-04-25T06:52:32;98942.72;;;10.32;75.80
23953;BME280;12163;49.316;6.092;2023-04-25T06:54:59;98951.72;;;10.41;76.08
23953;BME280;12163;49.316;6.092;2023-04-25T06:57:26;98948.97;;;10.46;75.09
23953;BME280;12163;49.316;6.092;2023-04-25T06:59:52;98951.84;;;10.49;74.92
23953;BME280;12163;49.316;6.092;2023-04-25T07:02:19;98963.06;;;10.56;74.66
23953;BME280;12163;49.316;6.092;2023-04-25T07:04:47;98963.22;;;10.60;74.26
23953;BME280;12163;49.316;6.092;2023-04-25T07:07:15;98956.34;;;10.67;74.25
23953;BME280;12163;49.316;6.092;2023-04-25T07:09:43;98965.03;;;10.78;73.63
23953;BME280;12163;49.316;6.092;2023-04-25T07:12:10;98966.03;;;10.82;72.68
23953;BME280;12163;49.316;6.092;2023-04-25T07:14:36;98976.44;;;10.75;71.74
23953;BME280;12163;49.316;6.092;2023-04-25T07:17:03;98970.06;;;10.71;71.61
23953;BME280;12163;49.316;6.092;2023-04-25T07:19:29;98962.63;;;10.76;72.11
23953;BME280;12163;49.316;6.092;2023-04-25T07:21:56;98965.53;;;10.80;72.20
23953;BME280;12163;49.316;6.092;2023-04-25T07:24:23;98965.16;;;10.86;73.06
23953;BME280;12163;49.316;6.092;2023-04-25T07:26:49;98963.75;;;10.89;71.42
23953;BME280;12163;49.316;6.092;2023-04-25T07:29:16;98962.44;;;10.86;71.05
23953;BME280;12163;49.316;6.092;2023-04-25T07:31:43;98964.25;;;10.91;72.22
23953;BME280;12163;49.316;6.092;2023-04-25T07:34:10;98966.84;;;10.96;72.76
23953;BME280;12163;49.316;6.092;2023-04-25T07:36:36;98968.44;;;10.97;71.56
23953;BME280;12163;49.316;6.092;2023-04-25T07:39:03;98967.06;;;10.99;71.40
23953;BME280;12163;49.316;6.092;2023-04-25T07:41:29;98966.72;;;11.01;71.59
23953;BME280;12163;49.316;6.092;2023-04-25T07:43:56;98968.94;;;10.99;70.59
23953;BME280;12163;49.316;6.092;2023-04-25T07:46:23;98981.03;;;11.01;70.88
23953;BME280;12163;49.316;6.092;2023-04-25T07:48:49;98975.31;;;11.03;71.68
23953;BME280;12163;49.316;6.092;2023-04-25T07:51:16;98972.13;;;11.01;71.90
23953;BME280;12163;49.316;6.092;2023-04-25T07:53:46;98984.53;;;11.02;71.59
23953;BME280;12163;49.316;6.092;2023-04-25T07:56:15;98987.84;;;10.99;70.71
23953;BME280;12163;49.316;6.092;2023-04-25T07:58:42;98987.44;;;10.92;70.63
23953;BME280;12163;49.316;6.092;2023-04-25T08:01:09;98991.13;;;10.96;71.06
23953;BME280;12163;49.316;6.092;2023-04-25T08:03:35;98992.72;;;10.97;71.33
23953;BME280;12163;49.316;6.092;2023-04-25T08:06:02;99002.03;;;11.04;71.64
23953;BME280;12163;49.316;6.092;2023-04-25T08:08:33;98998.13;;;11.10;70.62
23953;BME280;12163;49.316;6.092;2023-04-25T08:11:00;99013.50;;;11.10;70.13
23953;BME280;12163;49.316;6.092;2023-04-25T08:13:26;99006.00;;;11.07;69.10
23953;BME280;12163;49.316;6.092;2023-04-25T08:15:53;99009.31;;;11.04;69.76
23953;BME280;12163;49.316;6.092;2023-04-25T08:18:20;99020.63;;;11.06;70.18
23953;BME280;12163;49.316;6.092;2023-04-25T08:20:46;99012.22;;;11.07;70.50
23953;BME280;12163;49.316;6.092;2023-04-25T08:23:13;99021.59;;;11.10;69.56
23953;BME280;12163;49.316;6.092;2023-04-25T08:25:40;99023.25;;;11.11;70.03
23953;BME280;12163;49.316;6.092;2023-04-25T08:28:07;99022.41;;;11.10;70.14
23953;BME280;12163;49.316;6.092;2023-04-25T08:30:33;99017.22;;;11.14;69.95
23953;BME280;12163;49.316;6.092;2023-04-25T08:33:00;99025.22;;;11.19;69.82
23953;BME280;12163;49.316;6.092;2023-04-25T08:35:26;99034.72;;;11.43;70.25
23953;BME280;12163;49.316;6.092;2023-04-25T08:37:53;99030.53;;;11.73;69.25
23953;BME280;12163;49.316;6.092;2023-04-25T08:40:22;99038.19;;;11.92;66.28
23953;BME280;12163;49.316;6.092;2023-04-25T08:42:53;99038.63;;;12.08;65.36
23953;BME280;12163;49.316;6.092;2023-04-25T08:45:20;99031.63;;;12.29;66.22
23953;BME280;12163;49.316;6.092;2023-04-25T08:47:47;99045.47;;;12.49;62.11
23953;BME280;12163;49.316;6.092;2023-04-25T08:50:15;99042.84;;;12.66;63.88
23953;BME280;12163;49.316;6.092;2023-04-25T08:52:44;99056.75;;;12.73;60.13
23953;BME280;12163;49.316;6.092;2023-04-25T08:55:12;99060.06;;;12.70;60.14
23953;BME280;12163;49.316;6.092;2023-04-25T08:57:43;99054.28;;;12.63;60.71
23953;BME280;12163;49.316;6.092;2023-04-25T09:00:12;99067.66;;;12.60;58.56
23953;BME280;12163;49.316;6.092;2023-04-25T09:02:39;99065.88;;;12.55;59.90
23953;BME280;12163;49.316;6.092;2023-04-25T09:05:06;99078.28;;;12.56;59.43
23953;BME280;12163;49.316;6.092;2023-04-25T09:07:36;99077.50;;;12.56;59.66
23953;BME280;12163;49.316;6.092;2023-04-25T09:10:02;99085.09;;;12.54;58.74
23953;BME280;12163;49.316;6.092;2023-04-25T09:12:30;99091.75;;;12.48;61.80
23953;BME280;12163;49.316;6.092;2023-04-25T09:15:10;99096.13;;;12.35;62.02
23953;BME280;12163;49.316;6.092;2023-04-25T09:17:37;99096.72;;;12.10;61.87
23953;BME280;12163;49.316;6.092;2023-04-25T09:20:09;99106.13;;;11.77;62.98
23953;BME280;12163;49.316;6.092;2023-04-25T09:22:37;99107.22;;;11.50;63.60
23953;BME280;12163;49.316;6.092;2023-04-25T09:25:09;99110.81;;;11.32;64.76
23953;BME280;12163;49.316;6.092;2023-04-25T09:27:36;99115.81;;;11.11;65.20
23953;BME280;12163;49.316;6.092;2023-04-25T09:30:02;99123.22;;;11.06;65.73
23953;BME280;12163;49.316;6.092;2023-04-25T09:32:29;99118.00;;;10.96;66.71
23953;BME280;12163;49.316;6.092;2023-04-25T09:34:57;99129.91;;;10.95;67.24
23953;BME280;12163;49.316;6.092;2023-04-25T09:37:25;99135.91;;;10.92;67.71
23953;BME280;12163;49.316;6.092;2023-04-25T09:39:56;99136.78;;;10.87;68.14
23953;BME280;12163;49.316;6.092;2023-04-25T09:42:24;99148.78;;;10.81;68.38
23953;BME280;12163;49.316;6.092;2023-04-25T09:44:53;99141.56;;;10.77;68.90
23953;BME280;12163;49.316;6.092;2023-04-25T09:47:20;99147.78;;;10.77;69.39
23953;BME280;12163;49.316;6.092;2023-04-25T09:49:51;99155.75;;;10.69;69.36
23953;BME280;12163;49.316;6.092;2023-04-25T09:52:19;99156.09;;;10.62;69.84
23953;BME280;12163;49.316;6.092;2023-04-25T09:54:50;99164.34;;;10.52;70.30
23953;BME280;12163;49.316;6.092;2023-04-25T09:57:24;99162.69;;;10.56;70.99
23953;BME280;12163;49.316;6.092;2023-04-25T09:59:52;99173.53;;;10.51;69.96
23953;BME280;12163;49.316;6.092;2023-04-25T10:02:21;99165.84;;;10.45;70.44
23953;BME280;12163;49.316;6.092;2023-04-25T10:04:50;99169.63;;;10.44;71.48
23953;BME280;12163;49.316;6.092;2023-04-25T10:07:19;99172.31;;;10.44;71.39
23953;BME280;12163;49.316;6.092;2023-04-25T10:09:48;99180.97;;;10.41;70.25
23953;BME280;12163;49.316;6.092;2023-04-25T10:12:18;99188.56;;;10.39;70.77
23953;BME280;12163;49.316;6.092;2023-04-25T10:14:45;99191.25;;;10.39;69.53
23953;BME280;12163;49.316;6.092;2023-04-25T10:17:13;99195.88;;;10.38;68.43
23953;BME280;12163;49.316;6.092;2023-04-25T10:19:40;99186.84;;;10.48;68.76
23953;BME280;12163;49.316;6.092;2023-04-25T10:22:13;99185.06;;;10.57;68.54
23953;BME280;12163;49.316;6.092;2023-04-25T10:24:41;99184.00;;;10.71;68.58
23953;BME280;12163;49.316;6.092;2023-04-25T10:27:08;99181.78;;;10.92;68.44
23953;BME280;12163;49.316;6.092;2023-04-25T10:29:35;99182.63;;;11.06;67.36
23953;BME280;12163;49.316;6.092;2023-04-25T10:32:02;99183.22;;;11.16;67.57
23953;BME280;12163;49.316;6.092;2023-04-25T10:34:42;99179.25;;;11.27;67.75
23953;BME280;12163;49.316;6.092;2023-04-25T10:37:10;99188.09;;;11.33;66.43
23953;BME280;12163;49.316;6.092;2023-04-25T10:39:41;99183.19;;;11.35;66.26
23953;BME280;12163;49.316;6.092;2023-04-25T10:42:08;99186.88;;;11.39;66.56
23953;BME280;12163;49.316;6.092;2023-04-25T10:44:37;99189.16;;;11.32;66.07
23953;BME280;12163;49.316;6.092;2023-04-25T10:47:06;99193.56;;;11.28;66.86
23953;BME280;12163;49.316;6.092;2023-04-25T10:49:36;99185.47;;;11.41;67.63
23953;BME280;12163;49.316;6.092;2023-04-25T10:54:57;99196.84;;;11.57;65.84
23953;BME280;12163;49.316;6.092;2023-04-25T10:57:40;99191.34;;;11.62;64.64
23953;BME280;12163;49.316;6.092;2023-04-25T11:00:10;99202.84;;;11.67;64.09
23953;BME280;12163;49.316;6.092;2023-04-25T11:02:41;99199.72;;;11.73;64.41
23953;BME280;12163;49.316;6.092;2023-04-25T11:05:09;99204.94;;;11.83;64.43
23953;BME280;12163;49.316;6.092;2023-04-25T11:07:55;99197.53;;;12.02;64.49
23953;BME280;12163;49.316;6.092;2023-04-25T11:10:34;99195.25;;;12.31;65.06
23953;BME280;12163;49.316;6.092;2023-04-25T11:13:02;99193.19;;;12.50;63.63
23953;BME280;12163;49.316;6.092;2023-04-25T11:15:28;99195.34;;;12.62;63.19
23953;BME280;12163;49.316;6.092;2023-04-25T11:17:55;99190.50;;;12.72;62.81
23953;BME280;12163;49.316;6.092;2023-04-25T11:20:25;99202.19;;;12.81;62.87
23953;BME280;12163;49.316;6.092;2023-04-25T11:22:52;99195.84;;;12.86;62.75
23953;BME280;12163;49.316;6.092;2023-04-25T11:25:19;99200.28;;;12.82;62.15
23953;BME280;12163;49.316;6.092;2023-04-25T11:27:50;99200.78;;;12.62;61.67
23953;BME280;12163;49.316;6.092;2023-04-25T11:30:18;99219.88;;;12.43;61.21
23953;BME280;12163;49.316;6.092;2023-04-25T11:32:45;99206.44;;;12.38;61.53
23953;BME280;12163;49.316;6.092;2023-04-25T11:35:13;99197.22;;;12.39;62.11
23953;BME280;12163;49.316;6.092;2023-04-25T11:37:40;99198.25;;;12.43;62.63
23953;BME280;12163;49.316;6.092;2023-04-25T11:40:08;99189.25;;;12.56;63.36
23953;BME280;12163;49.316;6.092;2023-04-25T11:42:43;99192.09;;;12.73;62.98
23953;BME280;12163;49.316;6.092;2023-04-25T11:45:11;99197.25;;;12.83;62.92
23953;BME280;12163;49.316;6.092;2023-04-25T11:47:38;99198.16;;;12.92;63.16
23953;BME280;12163;49.316;6.092;2023-04-25T11:50:06;99198.41;;;13.04;62.46
23953;BME280;12163;49.316;6.092;2023-04-25T11:52:41;99207.38;;;13.13;61.31
23953;BME280;12163;49.316;6.092;2023-04-25T11:55:09;99209.22;;;13.04;59.60
23953;BME280;12163;49.316;6.092;2023-04-25T11:57:41;99211.88;;;12.96;59.53
23953;BME280;12163;49.316;6.092;2023-04-25T12:00:21;99212.69;;;12.96;59.82
23953;BME280;12163;49.316;6.092;2023-04-25T12:02:52;99211.44;;;13.02;60.29
23953;BME280;12163;49.316;6.092;2023-04-25T12:05:20;99214.50;;;13.09;60.08
23953;BME280;12163;49.316;6.092;2023-04-25T12:07:52;99216.13;;;13.32;59.48
23953;BME280;12163;49.316;6.092;2023-04-25T12:10:19;99215.94;;;13.59;59.50
23953;BME280;12163;49.316;6.092;2023-04-25T12:12:47;99222.53;;;13.83;58.08
23953;BME280;12163;49.316;6.092;2023-04-25T12:15:16;99206.13;;;13.80;55.02
23953;BME280;12163;49.316;6.092;2023-04-25T12:17:47;99217.84;;;13.67;54.05
23953;BME280;12163;49.316;6.092;2023-04-25T12:20:16;99213.94;;;13.81;54.88
23953;BME280;12163;49.316;6.092;2023-04-25T12:22:45;99217.22;;;14.09;52.74
23953;BME280;12163;49.316;6.092;2023-04-25T12:25:41;99217.56;;;14.16;52.02
23953;BME280;12163;49.316;6.092;2023-04-25T12:33:18;99221.34;;;13.59;51.01
23953;BME280;12163;49.316;6.092;2023-04-25T12:35:45;99221.53;;;13.32;53.19
23953;BME280;12163;49.316;6.092;2023-04-25T12:38:29;99227.19;;;13.22;53.35
23953;BME280;12163;49.316;6.092;2023-04-25T12:40:57;99226.03;;;13.15;54.27
23953;BME280;12163;49.316;6.092;2023-04-25T12:43:24;99226.47;;;13.08;53.67
23953;BME280;12163;49.316;6.092;2023-04-25T12:45:52;99230.53;;;12.97;52.17
23953;BME280;12163;49.316;6.092;2023-04-25T12:48:19;99225.84;;;12.89;53.11
23953;BME280;12163;49.316;6.092;2023-04-25T12:50:47;99230.44;;;12.89;52.45
23953;BME280;12163;49.316;6.092;2023-04-25T12:53:16;99227.44;;;12.90;53.16
23953;BME280;12163;49.316;6.092;2023-04-25T12:55:43;99232.75;;;12.95;52.68
23953;BME280;12163;49.316;6.092;2023-04-25T12:58:13;99229.78;;;13.05;53.21
23953;BME280;12163;49.316;6.092;2023-04-25T13:00:40;99231.63;;;13.18;54.07
23953;BME280;12163;49.316;6.092;2023-04-25T13:03:06;99233.97;;;13.33;53.86
23953;BME280;12163;49.316;6.092;2023-04-25T13:05:33;99227.31;;;13.39;52.65
23953;BME280;12163;49.316;6.092;2023-04-25T13:08:00;99236.78;;;13.28;52.07
23953;BME280;12163;49.316;6.092;2023-04-25T13:10:26;99249.31;;;13.16;51.57
23953;BME280;12163;49.316;6.092;2023-04-25T13:12:53;99237.63;;;13.07;52.14
23953;BME280;12163;49.316;6.092;2023-04-25T13:15:20;99248.75;;;13.05;53.07
23953;BME280;12163;49.316;6.092;2023-04-25T13:17:46;99237.91;;;13.05;53.05